sensor_id;sensor_type;location;lat;lon;timestamp;pressure;altitude;pressure_sealevel;temperature;humidity
76730;BME280;65653;53.106;18.046;2024-03-23T00:54:45;99971.48;;;7.12;100.00
76730;BME280;65653;53.106;18.046;2024-03-23T00:57:15;99966.91;;;7.07;100.00
76730;BME280;65653;53.106;18.046;2024-03-23T00:59:41;99961.81;;;7.03;100.00
76730;BME280;65653;53.106;18.046;2024-03-23T01:02:08;99961.48;;;7.00;100.00
76730;BME280;65653;53.106;18.046;2024-03-23T01:04:34;99964.54;;;6.95;100.00
76730;BME280;65653;53.106;18.046;2024-03-23T01:07:00;99968.45;;;6.92;100.00
76730;BME280;65653;53.106;18.046;2024-03-23T01:09:27;99969.65;;;6.89;100.00
76730;BME280;65653;53.106;18.046;2024-03-23T01:11:53;99964.08;;;6.86;100.00
76730;BME280;65653;53.106;18.046;2024-03-23T01:14:20;99966.46;;;6.86;100.00
76730;BME280;65653;53.106;18.046;2024-03-23T01:16:46;99974.00;;;6.88;100.00
76730;BME280;65653;53.106;18.046;2024-03-23T01:19:13;99978.04;;;6.89;100.00
76730;BME280;65653;53.106;18.046;2024-03-23T01:21:39;99974.91;;;6.89;100.00
76730;BME280;65653;53.106;18.046;2024-03-23T01:24:06;99972.75;;;6.89;100.00
76730;BME280;65653;53.106;18.046;2024-03-23T01:26:32;99973.13;;;6.90;100.00
76730;BME280;65653;53.106;18.046;2024-03-23T01:28:59;99968.61;;;6.91;100.00
76730;BME280;65653;53.106;18.046;2024-03-23T01:31:28;99968.84;;;6.89;100.00
76730;BME280;65653;53.106;18.046;2024-03-23T01:33:54;99969.14;;;6.89;100.00
76730;BME280;65653;53.106;18.046;2024-03-23T01:36:21;99966.10;;;6.89;100.00
76730;BME280;65653;53.106;18.046;2024-03-23T01:38:47;99963.59;;;6.87;100.00
76730;BME280;65653;53.106;18.046;2024-03-23T01:41:14;99965.64;;;6.87;100.00
76730;BME280;65653;53.106;18.046;2024-03-23T01:43:40;99959.13;;;6.86;100.00
76730;BME280;65653;53.106;18.046;2024-03-23T01:46:07;99958.23;;;6.85;100.00
76730;BME280;65653;53.106;18.046;2024-03-23T01:48:34;99963.25;;;6.83;100.00
76730;BME280;65653;53.106;18.046;2024-03-23T01:51:00;99960.42;;;6.79;100.00
76730;BME280;65653;53.106;18.046;2024-03-23T01:53:27;99959.52;;;6.78;100.00
76730;BME280;65653;53.106;18.046;2024-03-23T01:55:54;99956.69;;;6.78;100.00
76730;BME280;65653;53.106;18.046;2024-03-23T01:58:23;99955.50;;;6.78;100.00
76730;BME280;65653;53.106;18.046;2024-03-23T02:00:49;99953.30;;;6.78;100.00
76730;BME280;65653;53.106;18.046;2024-03-23T02:03:23;99951.02;;;6.78;100.00
76730;BME280;65653;53.106;18.046;2024-03-23T02:05:54;99952.45;;;6.79;100.00
76730;BME280;65653;53.106;18.046;2024-03-23T02:08:22;99956.99;;;6.79;100.00
76730;BME280;65653;53.106;18.046;2024-03-23T02:10:49;99957.30;;;6.79;100.00
76730;BME280;65653;53.106;18.046;2024-03-23T02:13:18;99951.49;;;6.80;100.00
76730;BME280;65653;53.106;18.046;2024-03-23T02:15:45;99948.04;;;6.80;100.00
76730;BME280;65653;53.106;18.046;2024-03-23T02:18:11;99947.48;;;6.81;100.00
76730;BME280;65653;53.106;18.046;2024-03-23T02:20:38;99937.02;;;6.81;100.00
76730;BME280;65653;53.106;18.046;2024-03-23T02:23:05;99941.94;;;6.82;100.00
76730;BME280;65653;53.106;18.046;2024-03-23T02:25:34;99935.80;;;6.81;100.00
76730;BME280;65653;53.106;18.046;2024-03-23T02:28:00;99933.55;;;6.81;100.00
76730;BME280;65653;53.106;18.046;2024-03-23T02:30:27;99933.44;;;6.82;100.00
76730;BME280;65653;53.106;18.046;2024-03-23T02:32:54;99930.49;;;6.83;100.00
76730;BME280;65653;53.106;18.046;2024-03-23T02:35:20;99923.92;;;6.85;100.00
76730;BME280;65653;53.106;18.046;2024-03-23T02:37:46;99913.11;;;6.86;100.00
76730;BME280;65653;53.106;18.046;2024-03-23T02:40:15;99912.38;;;6.87;100.00
76730;BME280;65653;53.106;18.046;2024-03-23T02:42:42;99915.20;;;6.89;100.00
76730;BME280;65653;53.106;18.046;2024-03-23T02:45:09;99916.59;;;6.91;100.00
76730;BME280;65653;53.106;18.046;2024-03-23T02:47:35;99910.84;;;6.92;100.00
76730;BME280;65653;53.106;18.046;2024-03-23T02:50:02;99913.70;;;6.93;100.00
76730;BME280;65653;53.106;18.046;2024-03-23T02:52:28;99902.94;;;6.93;100.00
76730;BME280;65653;53.106;18.046;2024-03-23T02:54:55;99900.48;;;6.93;100.00
76730;BME280;65653;53.106;18.046;2024-03-23T02:57:21;99897.59;;;6.91;100.00
76730;BME280;65653;53.106;18.046;2024-03-23T02:59:48;99894.73;;;6.86;100.00
76730;BME280;65653;53.106;18.046;2024-03-23T03:02:15;99893.38;;;6.81;100.00
76730;BME280;65653;53.106;18.046;2024-03-23T03:04:42;99884.75;;;6.79;100.00
76730;BME280;65653;53.106;18.046;2024-03-23T03:07:08;99880.94;;;6.77;100.00
76730;BME280;65653;53.106;18.046;2024-03-23T03:09:35;99871.98;;;6.74;100.00
76730;BME280;65653;53.106;18.046;2024-03-23T03:12:02;99867.73;;;6.71;100.00
76730;BME280;65653;53.106;18.046;2024-03-23T03:14:29;99870.35;;;6.71;100.00
76730;BME280;65653;53.106;18.046;2024-03-23T03:16:56;99867.41;;;6.68;100.00
76730;BME280;65653;53.106;18.046;2024-03-23T03:19:22;99865.33;;;6.67;100.00
76730;BME280;65653;53.106;18.046;2024-03-23T03:21:48;99864.45;;;6.66;100.00
76730;BME280;65653;53.106;18.046;2024-03-23T03:24:15;99863.90;;;6.67;100.00
76730;BME280;65653;53.106;18.046;2024-03-23T03:26:43;99867.15;;;6.69;100.00
76730;BME280;65653;53.106;18.046;2024-03-23T03:29:09;99864.36;;;6.69;100.00
76730;BME280;65653;53.106;18.046;2024-03-23T03:31:39;99857.61;;;6.70;100.00
76730;BME280;65653;53.106;18.046;2024-03-23T03:34:05;99856.28;;;6.68;100.00
76730;BME280;65653;53.106;18.046;2024-03-23T03:36:32;99856.93;;;6.64;100.00
76730;BME280;65653;53.106;18.046;2024-03-23T03:38:58;99861.11;;;6.63;100.00
76730;BME280;65653;53.106;18.046;2024-03-23T03:41:25;99861.27;;;6.62;100.00
76730;BME280;65653;53.106;18.046;2024-03-23T03:43:51;99861.06;;;6.61;100.00
76730;BME280;65653;53.106;18.046;2024-03-23T03:46:17;99857.73;;;6.60;100.00
76730;BME280;65653;53.106;18.046;2024-03-23T03:48:44;99852.80;;;6.57;100.00
76730;BME280;65653;53.106;18.046;2024-03-23T03:51:14;99850.00;;;6.56;100.00
76730;BME280;65653;53.106;18.046;2024-03-23T03:53:41;99851.83;;;6.56;100.00
76730;BME280;65653;53.106;18.046;2024-03-23T03:56:07;99849.40;;;6.55;100.00
76730;BME280;65653;53.106;18.046;2024-03-23T03:58:34;99850.98;;;6.55;100.00
76730;BME280;65653;53.106;18.046;2024-03-23T04:01:00;99851.11;;;6.57;100.00
76730;BME280;65653;53.106;18.046;2024-03-23T04:03:27;99848.77;;;6.58;100.00
76730;BME280;65653;53.106;18.046;2024-03-23T04:05:54;99850.02;;;6.58;100.00
76730;BME280;65653;53.106;18.046;2024-03-23T04:08:21;99850.92;;;6.60;100.00
76730;BME280;65653;53.106;18.046;2024-03-23T04:10:48;99852.25;;;6.61;100.00
76730;BME280;65653;53.106;18.046;2024-03-23T04:13:14;99847.20;;;6.60;100.00
76730;BME280;65653;53.106;18.046;2024-03-23T04:15:40;99842.42;;;6.60;100.00
76730;BME280;65653;53.106;18.046;2024-03-23T04:18:07;99836.96;;;6.60;100.00
76730;BME280;65653;53.106;18.046;2024-03-23T04:20:37;99835.39;;;6.60;100.00
76730;BME280;65653;53.106;18.046;2024-03-23T04:23:04;99838.27;;;6.60;100.00
76730;BME280;65653;53.106;18.046;2024-03-23T04:25:30;99842.46;;;6.60;100.00
76730;BME280;65653;53.106;18.046;2024-03-23T04:27:58;99845.92;;;6.59;100.00
76730;BME280;65653;53.106;18.046;2024-03-23T04:30:24;99838.16;;;6.55;100.00
76730;BME280;65653;53.106;18.046;2024-03-23T04:32:54;99835.34;;;6.53;100.00
76730;BME280;65653;53.106;18.046;2024-03-23T04:35:21;99828.60;;;6.53;100.00
76730;BME280;65653;53.106;18.046;2024-03-23T04:37:51;99825.02;;;6.53;100.00
76730;BME280;65653;53.106;18.046;2024-03-23T04:40:22;99830.45;;;6.54;100.00
76730;BME280;65653;53.106;18.046;2024-03-23T04:42:48;99827.81;;;6.53;100.00
76730;BME280;65653;53.106;18.046;2024-03-23T04:45:15;99824.34;;;6.53;100.00
76730;BME280;65653;53.106;18.046;2024-03-23T04:47:42;99823.70;;;6.53;100.00
76730;BME280;65653;53.106;18.046;2024-03-23T04:50:09;99826.83;;;6.53;100.00
76730;BME280;65653;53.106;18.046;2024-03-23T04:52:37;99829.59;;;6.52;100.00
76730;BME280;65653;53.106;18.046;2024-03-23T04:55:04;99830.79;;;6.50;100.00
76730;BME280;65653;53.106;18.046;2024-03-23T04:57:30;99831.30;;;6.44;100.00
76730;BME280;65653;53.106;18.046;2024-03-23T04:59:57;99833.14;;;6.40;100.00
76730;BME280;65653;53.106;18.046;2024-03-23T05:02:24;99831.00;;;6.38;100.00
76730;BME280;65653;53.106;18.046;2024-03-23T05:04:51;99825.45;;;6.36;100.00
76730;BME280;65653;53.106;18.046;2024-03-23T05:07:18;99819.20;;;6.32;100.00
76730;BME280;65653;53.106;18.046;2024-03-23T05:09:44;99811.23;;;6.31;100.00
76730;BME280;65653;53.106;18.046;2024-03-23T05:12:10;99808.66;;;6.31;100.00
76730;BME280;65653;53.106;18.046;2024-03-23T05:14:37;99802.61;;;6.33;100.00
76730;BME280;65653;53.106;18.046;2024-03-23T05:17:03;99802.52;;;6.33;100.00
76730;BME280;65653;53.106;18.046;2024-03-23T05:19:30;99789.98;;;6.34;100.00
76730;BME280;65653;53.106;18.046;2024-03-23T05:21:57;99787.92;;;6.36;100.00
76730;BME280;65653;53.106;18.046;2024-03-23T05:24:23;99788.19;;;6.37;100.00
76730;BME280;65653;53.106;18.046;2024-03-23T05:26:49;99792.56;;;6.41;100.00
76730;BME280;65653;53.106;18.046;2024-03-23T05:29:16;99793.01;;;6.44;100.00
76730;BME280;65653;53.106;18.046;2024-03-23T05:31:43;99795.44;;;6.48;100.00
76730;BME280;65653;53.106;18.046;2024-03-23T05:34:10;99791.38;;;6.46;100.00
76730;BME280;65653;53.106;18.046;2024-03-23T05:36:36;99788.75;;;6.46;100.00
76730;BME280;65653;53.106;18.046;2024-03-23T05:39:03;99788.53;;;6.48;100.00
76730;BME280;65653;53.106;18.046;2024-03-23T05:41:29;99778.25;;;6.52;100.00
76730;BME280;65653;53.106;18.046;2024-03-23T05:43:56;99784.70;;;6.57;100.00
76730;BME280;65653;53.106;18.046;2024-03-23T05:46:22;99781.36;;;6.57;100.00
76730;BME280;65653;53.106;18.046;2024-03-23T05:48:50;99778.41;;;6.58;100.00
76730;BME280;65653;53.106;18.046;2024-03-23T05:51:16;99772.41;;;6.60;100.00
76730;BME280;65653;53.106;18.046;2024-03-23T05:53:45;99761.81;;;6.65;100.00
76730;BME280;65653;53.106;18.046;2024-03-23T05:56:11;99747.79;;;6.68;100.00
76730;BME280;65653;53.106;18.046;2024-03-23T05:58:38;99731.98;;;6.75;100.00
76730;BME280;65653;53.106;18.046;2024-03-23T06:01:04;99719.09;;;6.88;100.00
76730;BME280;65653;53.106;18.046;2024-03-23T06:03:31;99709.46;;;7.08;100.00
76730;BME280;65653;53.106;18.046;2024-03-23T06:05:57;99694.38;;;7.22;100.00
76730;BME280;65653;53.106;18.046;2024-03-23T06:08:24;99700.42;;;7.21;100.00
76730;BME280;65653;53.106;18.046;2024-03-23T06:10:50;99699.28;;;7.22;100.00
76730;BME280;65653;53.106;18.046;2024-03-23T06:13:17;99701.52;;;7.18;100.00
76730;BME280;65653;53.106;18.046;2024-03-23T06:15:44;99720.66;;;7.13;100.00
76730;BME280;65653;53.106;18.046;2024-03-23T06:18:12;99732.71;;;7.09;100.00
76730;BME280;65653;53.106;18.046;2024-03-23T06:20:39;99737.97;;;7.07;100.00
76730;BME280;65653;53.106;18.046;2024-03-23T06:23:06;99742.13;;;6.99;100.00
76730;BME280;65653;53.106;18.046;2024-03-23T06:25:32;99743.81;;;6.88;100.00
76730;BME280;65653;53.106;18.046;2024-03-23T06:27:59;99742.91;;;6.83;100.00
76730;BME280;65653;53.106;18.046;2024-03-23T06:30:27;99741.31;;;6.78;100.00
76730;BME280;65653;53.106;18.046;2024-03-23T06:32:55;99742.07;;;6.76;100.00
76730;BME280;65653;53.106;18.046;2024-03-23T06:35:22;99734.08;;;6.75;100.00
76730;BME280;65653;53.106;18.046;2024-03-23T06:37:48;99729.02;;;6.74;100.00
76730;BME280;65653;53.106;18.046;2024-03-23T06:40:14;99728.16;;;6.72;100.00
76730;BME280;65653;53.106;18.046;2024-03-23T06:42:41;99729.17;;;6.72;100.00
76730;BME280;65653;53.106;18.046;2024-03-23T06:45:07;99733.20;;;6.72;100.00
76730;BME280;65653;53.106;18.046;2024-03-23T06:47:34;99737.41;;;6.76;100.00
76730;BME280;65653;53.106;18.046;2024-03-23T06:50:02;99734.60;;;6.82;100.00
76730;BME280;65653;53.106;18.046;2024-03-23T06:52:29;99736.34;;;6.84;100.00
76730;BME280;65653;53.106;18.046;2024-03-23T06:54:57;99737.63;;;6.80;100.00
76730;BME280;65653;53.106;18.046;2024-03-23T06:57:24;99735.46;;;6.75;100.00
76730;BME280;65653;53.106;18.046;2024-03-23T06:59:50;99731.30;;;6.72;100.00
76730;BME280;65653;53.106;18.046;2024-03-23T07:02:17;99729.60;;;6.71;100.00
76730;BME280;65653;53.106;18.046;2024-03-23T07:04:43;99723.27;;;6.68;100.00
76730;BME280;65653;53.106;18.046;2024-03-23T07:07:09;99731.07;;;6.62;100.00
76730;BME280;65653;53.106;18.046;2024-03-23T07:09:36;99731.06;;;6.59;100.00
76730;BME280;65653;53.106;18.046;2024-03-23T07:12:04;99722.27;;;6.62;100.00
76730;BME280;65653;53.106;18.046;2024-03-23T07:14:31;99717.50;;;6.65;100.00
76730;BME280;65653;53.106;18.046;2024-03-23T07:16:57;99719.38;;;6.68;100.00
76730;BME280;65653;53.106;18.046;2024-03-23T07:19:23;99721.35;;;6.74;100.00
76730;BME280;65653;53.106;18.046;2024-03-23T07:21:50;99722.67;;;6.82;100.00
76730;BME280;65653;53.106;18.046;2024-03-23T07:24:17;99723.77;;;6.83;100.00
76730;BME280;65653;53.106;18.046;2024-03-23T07:26:43;99718.77;;;6.83;100.00
76730;BME280;65653;53.106;18.046;2024-03-23T07:29:10;99717.55;;;6.83;100.00
76730;BME280;65653;53.106;18.046;2024-03-23T07:31:36;99715.46;;;6.80;100.00
76730;BME280;65653;53.106;18.046;2024-03-23T07:34:03;99711.16;;;6.76;100.00
76730;BME280;65653;53.106;18.046;2024-03-23T07:36:29;99714.77;;;6.76;100.00
76730;BME280;65653;53.106;18.046;2024-03-23T07:38:56;99707.60;;;6.86;100.00
76730;BME280;65653;53.106;18.046;2024-03-23T07:41:22;99700.73;;;6.92;100.00
76730;BME280;65653;53.106;18.046;2024-03-23T07:43:49;99700.70;;;7.00;100.00
76730;BME280;65653;53.106;18.046;2024-03-23T07:46:16;99689.35;;;7.09;100.00
76730;BME280;65653;53.106;18.046;2024-03-23T07:48:45;99706.95;;;7.08;100.00
76730;BME280;65653;53.106;18.046;2024-03-23T07:51:22;99699.33;;;7.02;100.00
76730;BME280;65653;53.106;18.046;2024-03-23T07:53:49;99699.23;;;6.99;100.00
76730;BME280;65653;53.106;18.046;2024-03-23T07:56:15;99702.86;;;6.98;100.00
76730;BME280;65653;53.106;18.046;2024-03-23T07:58:42;99692.35;;;6.95;100.00
76730;BME280;65653;53.106;18.046;2024-03-23T08:01:13;99687.81;;;6.92;100.00
76730;BME280;65653;53.106;18.046;2024-03-23T08:03:44;99681.07;;;6.89;100.00
76730;BME280;65653;53.106;18.046;2024-03-23T08:08:40;99691.92;;;6.73;100.00
76730;BME280;65653;53.106;18.046;2024-03-23T08:11:07;99687.77;;;6.62;100.00
76730;BME280;65653;53.106;18.046;2024-03-23T08:13:38;99672.21;;;6.54;100.00
76730;BME280;65653;53.106;18.046;2024-03-23T08:16:04;99664.30;;;6.55;100.00
76730;BME280;65653;53.106;18.046;2024-03-23T08:18:32;99659.77;;;6.64;100.00
76730;BME280;65653;53.106;18.046;2024-03-23T08:21:02;99658.05;;;6.70;100.00
76730;BME280;65653;53.106;18.046;2024-03-23T08:23:30;99663.39;;;6.73;100.00
76730;BME280;65653;53.106;18.046;2024-03-23T08:26:04;99661.21;;;6.78;100.00
76730;BME280;65653;53.106;18.046;2024-03-23T08:28:32;99654.66;;;6.79;100.00
76730;BME280;65653;53.106;18.046;2024-03-23T08:31:04;99647.36;;;6.80;100.00
76730;BME280;65653;53.106;18.046;2024-03-23T08:33:34;99640.87;;;6.83;100.00
76730;BME280;65653;53.106;18.046;2024-03-23T08:36:06;99638.50;;;6.83;100.00
76730;BME280;65653;53.106;18.046;2024-03-23T08:38:34;99630.79;;;6.84;100.00
76730;BME280;65653;53.106;18.046;2024-03-23T08:41:05;99628.72;;;6.86;100.00
76730;BME280;65653;53.106;18.046;2024-03-23T08:43:35;99629.79;;;6.91;100.00
76730;BME280;65653;53.106;18.046;2024-03-23T08:46:08;99625.02;;;6.94;100.00
76730;BME280;65653;53.106;18.046;2024-03-23T08:48:37;99624.20;;;6.89;100.00
76730;BME280;65653;53.106;18.046;2024-03-23T08:51:06;99627.77;;;6.78;100.00
76730;BME280;65653;53.106;18.046;2024-03-23T08:53:35;99631.42;;;6.71;100.00
76730;BME280;65653;53.106;18.046;2024-03-23T08:56:02;99634.16;;;6.65;100.00
76730;BME280;65653;53.106;18.046;2024-03-23T08:58:32;99635.66;;;6.59;100.00
76730;BME280;65653;53.106;18.046;2024-03-23T09:01:04;99635.55;;;6.64;100.00
76730;BME280;65653;53.106;18.046;2024-03-23T09:03:31;99626.26;;;6.68;100.00
76730;BME280;65653;53.106;18.046;2024-03-23T09:05:59;99617.80;;;6.67;100.00
76730;BME280;65653;53.106;18.046;2024-03-23T09:08:26;99606.15;;;6.70;100.00
76730;BME280;65653;53.106;18.046;2024-03-23T09:10:52;99599.79;;;6.75;100.00
76730;BME280;65653;53.106;18.046;2024-03-23T09:13:19;99591.52;;;6.70;100.00
76730;BME280;65653;53.106;18.046;2024-03-23T09:15:50;99588.48;;;6.61;100.00
76730;BME280;65653;53.106;18.046;2024-03-23T09:18:17;99586.67;;;6.53;100.00
76730;BME280;65653;53.106;18.046;2024-03-23T09:20:43;99587.25;;;6.49;100.00
76730;BME280;65653;53.106;18.046;2024-03-23T09:23:10;99584.38;;;6.51;100.00
76730;BME280;65653;53.106;18.046;2024-03-23T09:25:37;99585.64;;;6.51;100.00
76730;BME280;65653;53.106;18.046;2024-03-23T09:28:06;99593.04;;;6.47;100.00
76730;BME280;65653;53.106;18.046;2024-03-23T09:30:33;99586.83;;;6.49;100.00
76730;BME280;65653;53.106;18.046;2024-03-23T09:33:05;99580.65;;;6.47;100.00
76730;BME280;65653;53.106;18.046;2024-03-23T09:35:32;99579.16;;;6.34;100.00
76730;BME280;65653;53.106;18.046;2024-03-23T09:37:58;99581.10;;;6.14;100.00
76730;BME280;65653;53.106;18.046;2024-03-23T09:40:25;99573.70;;;6.02;100.00
76730;BME280;65653;53.106;18.046;2024-03-23T09:42:53;99563.46;;;6.05;100.00
76730;BME280;65653;53.106;18.046;2024-03-23T09:45:26;99560.91;;;6.04;100.00
76730;BME280;65653;53.106;18.046;2024-03-23T09:47:54;99554.94;;;6.18;100.00
76730;BME280;65653;53.106;18.046;2024-03-23T09:50:22;99548.71;;;6.38;100.00
76730;BME280;65653;53.106;18.046;2024-03-23T09:52:49;99544.72;;;6.50;100.00
76730;BME280;65653;53.106;18.046;2024-03-23T09:55:16;99544.02;;;6.75;100.00
76730;BME280;65653;53.106;18.046;2024-03-23T09:57:43;99544.08;;;6.80;100.00
76730;BME280;65653;53.106;18.046;2024-03-23T10:00:10;99542.20;;;6.73;100.00
76730;BME280;65653;53.106;18.046;2024-03-23T10:02:38;99542.98;;;6.65;100.00
76730;BME280;65653;53.106;18.046;2024-03-23T10:05:06;99538.32;;;6.47;100.00
76730;BME280;65653;53.106;18.046;2024-03-23T10:07:46;99539.62;;;6.37;100.00
76730;BME280;65653;53.106;18.046;2024-03-23T10:10:12;99537.83;;;6.36;100.00
76730;BME280;65653;53.106;18.046;2024-03-23T10:12:44;99542.05;;;6.29;100.00
76730;BME280;65653;53.106;18.046;2024-03-23T10:15:24;99542.00;;;6.16;100.00
76730;BME280;65653;53.106;18.046;2024-03-23T10:17:52;99537.83;;;6.12;100.00
76730;BME280;65653;53.106;18.046;2024-03-23T10:20:22;99535.55;;;6.11;100.00
76730;BME280;65653;53.106;18.046;2024-03-23T10:22:50;99532.83;;;6.07;100.00
76730;BME280;65653;53.106;18.046;2024-03-23T10:25:23;99548.20;;;5.96;100.00
76730;BME280;65653;53.106;18.046;2024-03-23T10:27:58;99546.38;;;5.89;100.00
76730;BME280;65653;53.106;18.046;2024-03-23T10:30:26;99538.88;;;5.80;100.00
76730;BME280;65653;53.106;18.046;2024-03-23T10:33:10;99537.54;;;5.74;100.00
76730;BME280;65653;53.106;18.046;2024-03-23T10:35:38;99531.16;;;5.70;100.00
76730;BME280;65653;53.106;18.046;2024-03-23T10:38:05;99527.60;;;5.76;100.00
76730;BME280;65653;53.106;18.046;2024-03-23T10:40:36;99524.96;;;5.92;100.00
76730;BME280;65653;53.106;18.046;2024-03-23T10:43:03;99517.59;;;6.04;100.00
76730;BME280;65653;53.106;18.046;2024-03-23T10:45:30;99510.48;;;6.16;100.00
76730;BME280;65653;53.106;18.046;2024-03-23T10:47:57;99514.07;;;6.14;100.00
76730;BME280;65653;53.106;18.046;2024-03-23T10:50:26;99513.21;;;6.12;100.00
76730;BME280;65653;53.106;18.046;2024-03-23T10:52:54;99506.35;;;6.09;100.00
76730;BME280;65653;53.106;18.046;2024-03-23T10:55:26;99490.30;;;6.25;100.00
76730;BME280;65653;53.106;18.046;2024-03-23T10:57:55;99487.85;;;6.45;100.00
76730;BME280;65653;53.106;18.046;2024-03-23T11:00:22;99481.05;;;6.56;100.00
76730;BME280;65653;53.106;18.046;2024-03-23T11:02:49;99480.00;;;6.62;100.00
76730;BME280;65653;53.106;18.046;2024-03-23T11:05:36;99474.92;;;6.59;100.00
76730;BME280;65653;53.106;18.046;2024-03-23T11:08:04;99460.66;;;6.57;100.00
76730;BME280;65653;53.106;18.046;2024-03-23T11:10:30;99462.45;;;6.67;100.00
76730;BME280;65653;53.106;18.046;2024-03-23T11:13:21;99458.52;;;6.78;100.00
76730;BME280;65653;53.106;18.046;2024-03-23T11:15:45;99453.35;;;6.81;100.00
76730;BME280;65653;53.106;18.046;2024-03-23T11:18:11;99441.91;;;6.89;100.00
76730;BME280;65653;53.106;18.046;2024-03-23T11:20:47;99440.38;;;6.85;100.00
76730;BME280;65653;53.106;18.046;2024-03-23T11:23:27;99447.92;;;6.71;100.00
76730;BME280;65653;53.106;18.046;2024-03-23T11:25:54;99446.48;;;6.52;100.00
76730;BME280;65653;53.106;18.046;2024-03-23T11:28:21;99434.54;;;6.54;100.00
76730;BME280;65653;53.106;18.046;2024-03-23T11:30:47;99432.81;;;6.58;100.00
76730;BME280;65653;53.106;18.046;2024-03-23T11:33:15;99440.55;;;6.61;100.00
76730;BME280;65653;53.106;18.046;2024-03-23T11:35:42;99438.95;;;6.55;100.00
76730;BME280;65653;53.106;18.046;2024-03-23T11:38:12;99429.50;;;6.50;100.00
76730;BME280;65653;53.106;18.046;2024-03-23T11:40:44;99426.92;;;6.52;100.00
76730;BME280;65653;53.106;18.046;2024-03-23T11:43:18;99425.98;;;6.55;100.00
76730;BME280;65653;53.106;18.046;2024-03-23T11:45:49;99419.95;;;6.55;100.00
76730;BME280;65653;53.106;18.046;2024-03-23T11:48:22;99419.17;;;6.43;100.00
76730;BME280;65653;53.106;18.046;2024-03-23T11:50:51;99426.99;;;6.35;100.00
76730;BME280;65653;53.106;18.046;2024-03-23T11:53:24;99427.45;;;6.24;100.00
76730;BME280;65653;53.106;18.046;2024-03-23T11:55:58;99419.37;;;6.08;100.00
76730;BME280;65653;53.106;18.046;2024-03-23T11:58:26;99420.28;;;6.02;100.00
76730;BME280;65653;53.106;18.046;2024-03-23T12:03:29;99407.36;;;5.92;100.00
76730;BME280;65653;53.106;18.046;2024-03-23T12:05:59;99401.06;;;5.84;100.00
76730;BME280;65653;53.106;18.046;2024-03-23T12:11:16;99388.05;;;5.94;100.00
76730;BME280;65653;53.106;18.046;2024-03-23T12:13:43;99369.11;;;6.00;100.00
76730;BME280;65653;53.106;18.046;2024-03-23T12:16:13;99364.36;;;6.10;100.00
76730;BME280;65653;53.106;18.046;2024-03-23T12:18:41;99367.36;;;6.16;100.00
76730;BME280;65653;53.106;18.046;2024-03-23T12:21:08;99363.11;;;6.23;100.00
76730;BME280;65653;53.106;18.046;2024-03-23T12:23:35;99358.25;;;6.27;100.00
76730;BME280;65653;53.106;18.046;2024-03-23T12:26:02;99361.16;;;6.35;100.00
76730;BME280;65653;53.106;18.046;2024-03-23T12:28:29;99363.32;;;6.32;100.00
76730;BME280;65653;53.106;18.046;2024-03-23T12:30:55;99374.21;;;6.14;100.00
76730;BME280;65653;53.106;18.046;2024-03-23T12:33:22;99379.86;;;6.00;100.00
76730;BME280;65653;53.106;18.046;2024-03-23T12:35:50;99378.46;;;5.98;100.00
76730;BME280;65653;53.106;18.046;2024-03-23T12:38:16;99366.08;;;5.97;100.00
76730;BME280;65653;53.106;18.046;2024-03-23T12:40:49;99352.27;;;5.91;100.00
76730;BME280;65653;53.106;18.046;2024-03-23T12:43:18;99324.79;;;5.85;100.00
76730;BME280;65653;53.106;18.046;2024-03-23T12:45:48;99326.20;;;5.84;100.00
76730;BME280;65653;53.106;18.046;2024-03-23T12:48:15;99342.67;;;5.82;100.00
76730;BME280;65653;53.106;18.046;2024-03-23T12:50:54;99344.90;;;5.80;100.00
76730;BME280;65653;53.106;18.046;2024-03-23T12:53:20;99340.34;;;5.77;100.00
76730;BME280;65653;53.106;18.046;2024-03-23T12:55:47;99331.40;;;5.68;100.00
76730;BME280;65653;53.106;18.046;2024-03-23T12:58:14;99327.48;;;5.58;100.00
76730;BME280;65653;53.106;18.046;2024-03-23T13:00:43;99314.75;;;5.51;100.00
76730;BME280;65653;53.106;18.046;2024-03-23T13:03:13;99302.02;;;5.48;100.00
76730;BME280;65653;53.106;18.046;2024-03-23T13:05:42;99290.45;;;5.45;100.00
76730;BME280;65653;53.106;18.046;2024-03-23T13:08:08;99277.42;;;5.43;100.00
76730;BME280;65653;53.106;18.046;2024-03-23T13:10:34;99266.81;;;5.44;100.00
76730;BME280;65653;53.106;18.046;2024-03-23T13:13:01;99245.71;;;5.47;100.00
76730;BME280;65653;53.106;18.046;2024-03-23T13:15:27;99251.45;;;5.48;100.00
76730;BME280;65653;53.106;18.046;2024-03-23T13:17:54;99262.38;;;5.40;100.00
76730;BME280;65653;53.106;18.046;2024-03-23T13:20:20;99267.38;;;5.32;100.00
76730;BME280;65653;53.106;18.046;2024-03-23T13:22:47;99276.15;;;5.28;100.00
76730;BME280;65653;53.106;18.046;2024-03-23T13:25:17;99282.13;;;5.23;100.00
76730;BME280;65653;53.106;18.046;2024-03-23T13:27:45;99282.33;;;5.19;100.00
76730;BME280;65653;53.106;18.046;2024-03-23T13:30:12;99292.52;;;5.14;100.00
76730;BME280;65653;53.106;18.046;2024-03-23T13:32:39;99300.48;;;5.08;100.00
76730;BME280;65653;53.106;18.046;2024-03-23T13:35:05;99304.65;;;5.04;100.00
76730;BME280;65653;53.106;18.046;2024-03-23T13:37:32;99300.81;;;4.97;100.00
76730;BME280;65653;53.106;18.046;2024-03-23T13:40:00;99296.05;;;4.88;100.00
76730;BME280;65653;53.106;18.046;2024-03-23T13:42:27;99299.69;;;4.83;100.00
76730;BME280;65653;53.106;18.046;2024-03-23T13:44:53;99300.70;;;4.76;100.00
76730;BME280;65653;53.106;18.046;2024-03-23T13:47:19;99309.77;;;4.76;100.00
76730;BME280;65653;53.106;18.046;2024-03-23T13:49:46;99300.73;;;4.75;100.00
76730;BME280;65653;53.106;18.046;2024-03-23T13:52:13;99292.42;;;4.75;100.00
76730;BME280;65653;53.106;18.046;2024-03-23T13:54:39;99299.49;;;4.79;100.00